Time;durP1;ratioP1;P1;durP2;ratioP2;P2;SDS_P1;SDS_P2;PMS_P1;PMS_P2;Temp;Humidity;BMP_temperature;BMP_pressure;BME280_temperature;BME280_humidity;BME280_pressure;Samples;Min_cycle;Max_cycle;Signal;HPM_P1;HPM_P2
2022/10/10 00:01:28;;;;;;;8.02;5.38;;;;;;;7.92;100.00;101302.97;5246077;28;20037;-65
2022/10/10 00:04:00;;;;;;;7.80;4.97;;;;;;;7.93;100.00;101307.38;5245711;28;20035;-65
2022/10/10 00:06:32;;;;;;;8.55;5.75;;;;;;;7.93;100.00;101307.38;5250559;28;20159;-65
2022/10/10 00:09:04;;;;;;;9.10;5.55;;;;;;;8.00;100.00;101308.72;5242863;28;20040;-65
2022/10/10 00:11:36;;;;;;;9.98;5.72;;;;;;;7.94;100.00;101304.63;5247989;28;20498;-65
2022/10/10 00:14:07;;;;;;;9.82;5.60;;;;;;;7.91;100.00;101295.97;5253312;28;20172;-65
2022/10/10 00:16:38;;;;;;;8.52;5.65;;;;;;;7.97;100.00;101293.81;5246566;28;21303;-65
2022/10/10 00:19:09;;;;;;;10.13;5.88;;;;;;;7.87;100.00;101292.63;5247427;28;20035;-65
2022/10/10 00:21:41;;;;;;;10.80;6.65;;;;;;;7.84;100.00;101292.81;5230128;28;20037;-66
2022/10/10 00:24:12;;;;;;;9.60;6.32;;;;;;;7.88;100.00;101289.06;5231008;28;20032;-65
2022/10/10 00:26:43;;;;;;;9.80;5.68;;;;;;;7.89;100.00;101293.41;5230399;28;20059;-65
2022/10/10 00:29:15;;;;;;;9.63;5.75;;;;;;;7.87;100.00;101292.63;5242167;28;20063;-65
2022/10/10 00:31:46;;;;;;;9.05;5.60;;;;;;;7.89;100.00;101282.78;5237541;28;20032;-65
2022/10/10 00:34:17;;;;;;;7.80;5.65;;;;;;;7.81;100.00;101291.19;5250894;28;20029;-65
2022/10/10 00:36:48;;;;;;;10.10;5.80;;;;;;;7.81;100.00;101283.22;5253509;28;20044;-65
2022/10/10 00:39:20;;;;;;;10.80;6.15;;;;;;;7.73;100.00;101285.47;5250575;28;20035;-65
2022/10/10 00:41:51;;;;;;;7.95;5.65;;;;;;;7.82;100.00;101286.72;5253768;28;20040;-65
2022/10/10 00:44:22;;;;;;;9.82;6.10;;;;;;;7.73;100.00;101281.94;5255192;28;20042;-65
2022/10/10 00:46:54;;;;;;;10.00;6.32;;;;;;;7.81;100.00;101277.91;5251142;28;20037;-65
2022/10/10 00:49:28;;;;;;;9.52;6.13;;;;;;;7.79;100.00;101282.44;5256220;28;20036;-65
2022/10/10 00:52:00;;;;;;;7.43;6.22;;;;;;;7.71;100.00;101274.09;5259284;28;20502;-65
2022/10/10 00:54:32;;;;;;;9.05;5.80;;;;;;;7.62;100.00;101270.13;5257493;28;20106;-66
2022/10/10 00:57:09;;;;;;;9.20;5.63;;;;;;;7.64;100.00;101272.72;5256851;28;20453;-65
2022/10/10 00:59:44;;;;;;;11.57;6.22;;;;;;;7.59;100.00;101274.75;5258224;28;20033;-65
2022/10/10 01:02:15;;;;;;;;;;;;;;;7.68;100.00;101271.59;5223758;28;20075;-65
2022/10/10 01:04:46;;;;;;;9.02;5.97;;;;;;;7.55;100.00;101260.81;5250751;28;20358;-65
2022/10/10 01:07:22;;;;;;;10.07;5.93;;;;;;;7.55;100.00;101268.78;5244155;28;20036;-65
2022/10/10 01:09:56;;;;;;;11.27;6.13;;;;;;;7.54;100.00;101263.56;5245251;28;20028;-65
2022/10/10 01:13:03;;;;;;;10.15;6.55;;;;;;;7.59;100.00;101261.50;5241308;28;20431;-65
2022/10/10 01:15:46;;;;;;;11.10;6.50;;;;;;;7.58;100.00;101258.00;5232981;28;20470;-65
2022/10/10 01:18:47;;;;;;;8.30;6.20;;;;;;;7.55;100.00;101250.19;5247526;28;20423;-65
2022/10/10 01:21:42;;;;;;;10.70;6.53;;;;;;;7.49;100.00;101250.53;5243843;28;20025;-65
2022/10/10 01:24:24;;;;;;;;;;;;;;;7.55;100.00;101258.16;5253119;28;20098;-65
2022/10/10 01:27:17;;;;;;;9.90;6.25;;;;;;;7.53;100.00;101257.38;5247448;28;19921;-65
2022/10/10 01:29:52;;;;;;;10.18;6.35;;;;;;;7.60;100.00;101258.75;5256204;28;20131;-65
2022/10/10 01:32:34;;;;;;;11.52;6.82;;;;;;;7.54;100.00;101258.25;5247243;28;20056;-65
2022/10/10 01:35:27;;;;;;;10.10;6.22;;;;;;;7.49;100.00;101252.34;5251492;28;20021;-66
2022/10/10 01:38:21;;;;;;;8.55;6.35;;;;;;;7.44;100.00;101249.94;5250273;28;20680;-65
2022/10/10 01:41:01;;;;;;;13.15;6.75;;;;;;;7.45;100.00;101243.69;5254557;28;20123;-65
2022/10/10 01:43:34;;;;;;;9.35;6.22;;;;;;;7.53;100.00;101245.91;5259274;28;20036;-65
2022/10/10 01:46:11;;;;;;;12.15;6.78;;;;;;;7.47;100.00;101247.97;5237816;28;20453;-65
2022/10/10 01:48:46;;;;;;;10.40;6.85;;;;;;;7.38;100.00;101242.31;5254498;28;20037;-66
2022/10/10 01:51:36;;;;;;;12.13;7.10;;;;;;;7.45;100.00;101239.25;5255947;28;20474;-65
2022/10/10 01:54:26;;;;;;;11.02;6.65;;;;;;;7.34;100.00;101236.34;5257619;28;20075;-65
2022/10/10 01:57:13;;;;;;;9.52;6.00;;;;;;;7.41;100.00;101240.34;5255549;28;20032;-65
2022/10/10 02:00:09;;;;;;;9.38;5.88;;;;;;;7.46;100.00;101237.47;5256454;28;20037;-65
2022/10/10 02:02:49;;;;;;;9.98;6.63;;;;;;;7.47;100.00;101233.84;5256559;28;20490;-65
2022/10/10 02:05:39;;;;;;;11.95;6.35;;;;;;;7.41;100.00;101231.53;5238320;28;20460;-65
2022/10/10 02:08:55;;;;;;;9.80;6.57;;;;;;;7.41;100.00;101226.25;5258669;28;20037;-65
2022/10/10 02:11:28;;;;;;;9.80;6.22;;;;;;;7.33;100.00;101217.88;5169203;28;20035;-65
2022/10/10 02:14:09;;;;;;;13.50;7.00;;;;;;;7.39;100.00;101221.00;5244483;28;20036;-65
2022/10/10 02:16:43;;;;;;;10.00;6.65;;;;;;;7.36;100.00;101215.88;5246226;28;20361;-65
2022/10/10 02:19:17;;;;;;;;;;;;;;;7.38;100.00;101215.78;5247212;28;20063;-65
2022/10/10 02:21:51;;;;;;;10.23;6.10;;;;;;;7.33;100.00;101216.06;5249707;28;20393;-66
2022/10/10 02:24:23;;;;;;;10.13;6.13;;;;;;;7.37;100.00;101214.94;5251386;28;20020;-65
2022/10/10 02:27:07;;;;;;;12.27;7.10;;;;;;;7.39;100.00;101206.88;5257729;28;20449;-65
2022/10/10 02:29:42;;;;;;;10.63;5.70;;;;;;;7.38;100.00;101208.69;5256230;28;20136;-65
2022/10/10 02:32:27;;;;;;;11.27;6.38;;;;;;;7.37;100.00;101201.66;5250649;28;20478;-65
2022/10/10 02:35:06;;;;;;;10.45;6.45;;;;;;;7.29;100.00;101203.91;5255993;28;20060;-65
2022/10/10 02:37:39;;;;;;;11.75;7.45;;;;;;;7.26;100.00;101207.56;5251006;28;20534;-65
2022/10/10 02:40:15;;;;;;;8.70;6.43;;;;;;;7.26;100.00;101202.25;5248460;28;20042;-65
2022/10/10 02:42:49;;;;;;;11.77;6.55;;;;;;;7.33;100.00;101201.94;5251468;28;20380;-65
2022/10/10 02:45:21;;;;;;;8.73;6.38;;;;;;;7.30;100.00;101196.78;5255293;28;20028;-65
2022/10/10 02:47:53;;;;;;;10.82;7.07;;;;;;;7.31;100.00;101191.41;5256391;28;20042;-66
2022/10/10 02:50:26;;;;;;;9.95;6.40;;;;;;;7.28;100.00;101190.72;5258392;28;20036;-65
2022/10/10 02:52:58;;;;;;;11.70;6.55;;;;;;;7.32;100.00;101186.94;5250905;28;20056;-65
2022/10/10 02:55:29;;;;;;;8.98;5.70;;;;;;;7.28;100.00;101180.94;5258112;28;20549;-65
2022/10/10 02:58:00;;;;;;;8.85;6.63;;;;;;;7.26;100.00;101189.00;5252423;28;20561;-65
2022/10/10 03:00:31;;;;;;;10.85;6.20;;;;;;;7.37;100.00;101182.22;5257479;28;20536;-66
2022/10/10 03:03:03;;;;;;;9.35;6.15;;;;;;;7.30;100.00;101183.53;5247265;28;20056;-65
2022/10/10 03:05:34;;;;;;;10.15;5.97;;;;;;;7.29;100.00;101177.38;5256550;28;20032;-65
2022/10/10 03:08:05;;;;;;;9.15;5.70;;;;;;;7.25;100.00;101184.66;5250831;28;20032;-65
2022/10/10 03:10:36;;;;;;;10.68;5.82;;;;;;;7.20;100.00;101169.94;5247373;28;20075;-65
2022/10/10 03:13:08;;;;;;;9.88;5.75;;;;;;;7.24;100.00;101174.09;5251601;28;20447;-65
2022/10/10 03:15:39;;;;;;;9.10;5.80;;;;;;;7.21;100.00;101175.16;5253814;28;20028;-65
2022/10/10 03:18:10;;;;;;;10.57;5.95;;;;;;;7.29;100.00;101171.19;5254780;28;20028;-65
2022/10/10 03:20:44;;;;;;;7.40;5.75;;;;;;;7.28;100.00;101169.50;5254120;28;20032;-66
2022/10/10 03:23:16;;;;;;;10.43;5.88;;;;;;;7.21;100.00;101169.84;5261183;28;20047;-65
2022/10/10 03:25:47;;;;;;;10.68;6.05;;;;;;;7.22;100.00;101168.88;5261611;28;20486;-65
2022/10/10 03:28:19;;;;;;;11.07;6.32;;;;;;;7.17;100.00;101163.00;5255450;28;20055;-65
2022/10/10 03:30:50;;;;;;;9.48;5.70;;;;;;;7.21;100.00;101164.53;5258964;28;20032;-65
2022/10/10 03:33:22;;;;;;;9.70;5.78;;;;;;;7.22;100.00;101163.56;5257964;28;20118;-65
2022/10/10 03:35:53;;;;;;;9.27;5.72;;;;;;;7.26;100.00;101164.25;5256695;28;20025;-66
2022/10/10 03:38:24;;;;;;;9.77;5.88;;;;;;;7.18;100.00;101167.34;5254233;28;20033;-65
2022/10/10 03:40:56;;;;;;;9.10;5.50;;;;;;;7.18;100.00;101172.66;5249833;28;20089;-65
2022/10/10 03:43:27;;;;;;;10.10;5.80;;;;;;;7.24;100.00;101169.66;5248547;28;20036;-65
2022/10/10 03:45:58;;;;;;;8.93;5.72;;;;;;;7.19;100.00;101166.44;5248628;28;20032;-65
2022/10/10 03:48:29;;;;;;;8.55;5.65;;;;;;;7.21;100.00;101171.63;5250072;28;20047;-65
2022/10/10 03:51:01;;;;;;;10.30;5.53;;;;;;;7.25;100.00;101175.84;5255566;28;20036;-65
2022/10/10 03:53:32;;;;;;;11.52;5.68;;;;;;;7.19;100.00;101174.38;5246155;28;20090;-65
2022/10/10 03:56:03;;;;;;;8.63;5.15;;;;;;;7.24;100.00;101174.97;5247484;28;20105;-65
2022/10/10 03:58:35;;;;;;;8.68;5.65;;;;;;;7.21;100.00;101169.84;5256169;28;20051;-65
2022/10/10 04:01:06;;;;;;;9.98;6.13;;;;;;;7.25;100.00;101171.38;5260379;28;20024;-65
2022/10/10 04:03:38;;;;;;;7.72;5.95;;;;;;;7.22;100.00;101166.22;5250197;28;20229;-65
2022/10/10 04:06:10;;;;;;;8.10;5.57;;;;;;;7.22;100.00;101171.53;5243781;28;20550;-65
2022/10/10 04:08:41;;;;;;;9.10;5.60;;;;;;;7.20;100.00;101168.13;5243398;28;20070;-65
2022/10/10 04:11:12;;;;;;;9.85;5.45;;;;;;;7.23;100.00;101165.31;5248105;28;20044;-65
2022/10/10 04:13:44;;;;;;;9.07;6.35;;;;;;;7.23;100.00;101169.75;5248527;28;20131;-65
2022/10/10 04:16:16;;;;;;;12.43;5.53;;;;;;;7.16;100.00;101163.09;5245730;28;20536;-65
2022/10/10 04:18:47;;;;;;;10.70;6.97;;;;;;;7.17;100.00;101167.44;5247735;28;20032;-65
2022/10/10 04:21:18;;;;;;;8.75;5.60;;;;;;;7.15;100.00;101162.25;5247555;28;20067;-65
2022/10/10 04:23:49;;;;;;;8.65;5.65;;;;;;;7.18;100.00;101169.16;5248384;28;20037;-65
2022/10/10 04:26:21;;;;;;;9.40;5.78;;;;;;;7.21;100.00;101164.53;5250366;28;20025;-65
2022/10/10 04:28:52;;;;;;;10.00;6.00;;;;;;;7.19;100.00;101166.44;5249037;28;20055;-65
2022/10/10 04:31:23;;;;;;;10.73;5.53;;;;;;;7.15;100.00;101166.66;5258474;28;20097;-65
2022/10/10 04:33:54;;;;;;;11.00;5.85;;;;;;;7.13;100.00;101160.59;5252511;28;20028;-65
2022/10/10 04:36:26;;;;;;;8.95;5.95;;;;;;;7.10;100.00;101166.09;5247955;28;20031;-65
2022/10/10 04:38:58;;;;;;;10.73;5.43;;;;;;;7.10;100.00;101166.94;5246340;28;20082;-65
2022/10/10 04:41:29;;;;;;;9.63;6.13;;;;;;;7.15;100.00;101169.31;5254997;28;20479;-65
2022/10/10 04:44:00;;;;;;;12.65;5.82;;;;;;;7.09;100.00;101169.69;5251865;28;20062;-65
2022/10/10 04:46:32;;;;;;;8.75;5.55;;;;;;;7.10;100.00;101166.09;5233372;28;20046;-65
2022/10/10 04:49:03;;;;;;;11.15;5.55;;;;;;;7.06;100.00;101158.31;5257522;28;20036;-66
2022/10/10 04:51:34;;;;;;;10.70;6.20;;;;;;;7.06;100.00;101160.94;5256167;28;20513;-65
2022/10/10 04:54:05;;;;;;;9.07;6.32;;;;;;;7.01;100.00;101157.69;5249825;28;20106;-65
2022/10/10 04:56:37;;;;;;;10.45;6.00;;;;;;;6.99;100.00;101159.59;5258661;28;20044;-65
2022/10/10 04:59:08;;;;;;;10.52;6.47;;;;;;;6.97;100.00;101161.47;5251568;28;20055;-65
2022/10/10 05:01:41;;;;;;;8.57;5.68;;;;;;;6.96;100.00;101165.09;5252181;28;20468;-65
2022/10/10 05:04:13;;;;;;;11.35;6.03;;;;;;;6.94;100.00;101160.78;5241477;28;20032;-65
2022/10/10 05:06:44;;;;;;;8.57;5.65;;;;;;;6.98;100.00;101157.88;5257583;28;20035;-65
2022/10/10 05:09:15;;;;;;;10.65;5.97;;;;;;;6.96;100.00;101156.25;5244644;28;20394;-65
2022/10/10 05:11:47;;;;;;;8.40;5.78;;;;;;;6.90;100.00;101157.44;5256722;28;20593;-65
2022/10/10 05:14:18;;;;;;;8.95;5.40;;;;;;;6.99;100.00;101156.09;5263280;28;20029;-65
2022/10/10 05:16:49;;;;;;;9.90;5.70;;;;;;;6.93;100.00;101151.97;5264237;28;20033;-65
2022/10/10 05:19:21;;;;;;;11.10;5.95;;;;;;;6.96;100.00;101146.50;5261728;28;20139;-65
2022/10/10 05:21:52;;;;;;;11.13;5.80;;;;;;;6.96;100.00;101145.63;5266992;28;20033;-65
2022/10/10 05:24:23;;;;;;;12.60;6.45;;;;;;;6.91;100.00;101145.91;5258435;28;20037;-65
2022/10/10 05:26:54;;;;;;;10.35;5.78;;;;;;;6.94;100.00;101150.16;5263138;28;20055;-65
2022/10/10 05:29:26;;;;;;;9.68;5.68;;;;;;;6.96;100.00;101156.25;5261311;28;20087;-65
2022/10/10 05:31:57;;;;;;;8.05;5.78;;;;;;;6.93;100.00;101153.78;5263244;28;20415;-65
2022/10/10 05:34:28;;;;;;;8.73;5.82;;;;;;;6.85;100.00;101155.06;5260566;28;20055;-65
2022/10/10 05:37:00;;;;;;;9.20;5.60;;;;;;;6.92;100.00;101158.22;5260268;28;20028;-66
2022/10/10 05:39:31;;;;;;;13.63;6.43;;;;;;;6.87;100.00;101157.63;5257613;28;20028;-65
2022/10/10 05:42:02;;;;;;;9.90;5.80;;;;;;;6.90;100.00;101153.94;5264616;28;20447;-65
2022/10/10 05:44:34;;;;;;;13.02;7.25;;;;;;;6.80;100.00;101159.75;5257819;28;20479;-65
2022/10/10 05:47:05;;;;;;;10.45;6.13;;;;;;;6.82;100.00;101154.38;5266147;28;20045;-66
2022/10/10 05:49:36;;;;;;;11.20;5.95;;;;;;;6.79;100.00;101159.88;5263740;28;20561;-66
2022/10/10 05:52:07;;;;;;;10.82;6.40;;;;;;;6.84;100.00;101158.63;5260721;28;20037;-66
2022/10/10 05:54:39;;;;;;;10.43;5.95;;;;;;;6.84;100.00;101158.63;5263992;28;20049;-66
2022/10/10 05:57:10;;;;;;;9.88;5.93;;;;;;;6.91;100.00;101156.50;5260588;28;20103;-65
2022/10/10 05:59:41;;;;;;;11.38;6.18;;;;;;;6.89;100.00;101160.22;5253680;28;20032;-66
2022/10/10 06:02:13;;;;;;;12.38;6.93;;;;;;;6.90;100.00;101159.25;5260186;28;20040;-66
2022/10/10 06:04:44;;;;;;;10.10;6.13;;;;;;;6.90;100.00;101151.28;5250638;28;20119;-66
2022/10/10 06:07:15;;;;;;;10.55;6.65;;;;;;;6.92;100.00;101157.34;5257541;28;20123;-66
2022/10/10 06:09:47;;;;;;;11.05;6.78;;;;;;;6.85;100.00;101165.66;5255853;28;20032;-66
2022/10/10 06:12:18;;;;;;;10.60;6.18;;;;;;;6.83;100.00;101153.44;5268783;28;20040;-65
2022/10/10 06:14:49;;;;;;;10.23;6.13;;;;;;;6.92;100.00;101157.34;5265759;28;20062;-65
2022/10/10 06:17:20;;;;;;;10.00;6.07;;;;;;;6.91;100.00;101156.50;5250422;28;20029;-65
2022/10/10 06:19:52;;;;;;;8.82;5.05;;;;;;;6.91;100.00;101158.31;5259198;28;20028;-65
2022/10/10 06:22:23;;;;;;;10.43;5.82;;;;;;;6.89;100.00;101169.00;5258364;28;20028;-65
2022/10/10 06:24:54;;;;;;;11.80;6.90;;;;;;;6.91;100.00;101169.78;5254382;28;20045;-66
2022/10/10 06:27:25;;;;;;;9.18;5.75;;;;;;;6.89;100.00;101170.81;5249746;28;20099;-66
2022/10/10 06:29:57;;;;;;;9.50;6.03;;;;;;;6.87;100.00;101178.84;5262037;28;20032;-66
2022/10/10 06:32:28;;;;;;;13.00;6.38;;;;;;;6.90;100.00;101169.84;5276144;28;20097;-66
2022/10/10 06:34:59;;;;;;;11.90;6.25;;;;;;;6.94;100.00;101163.44;5272758;28;20370;-65
2022/10/10 06:37:30;;;;;;;12.05;6.35;;;;;;;6.96;100.00;101177.47;5263225;28;20509;-65
2022/10/10 06:40:02;;;;;;;12.30;6.40;;;;;;;6.95;100.00;101175.78;5251910;28;20036;-66
2022/10/10 06:42:33;;;;;;;12.13;7.07;;;;;;;7.05;100.00;101175.16;5269831;28;20071;-65
2022/10/10 06:45:05;;;;;;;11.82;6.55;;;;;;;7.04;100.00;101178.75;5259743;28;20048;-66
2022/10/10 06:47:37;;;;;;;10.38;7.28;;;;;;;7.03;100.00;101189.44;5267711;28;20037;-65
2022/10/10 06:50:08;;;;;;;12.50;6.63;;;;;;;7.07;100.00;101188.34;5261524;28;20052;-66
2022/10/10 06:52:40;;;;;;;12.90;6.80;;;;;;;7.09;100.00;101186.44;5278517;28;20025;-66
2022/10/10 06:55:11;;;;;;;11.45;6.88;;;;;;;7.10;100.00;101192.63;5278668;28;20490;-66
2022/10/10 06:57:43;;;;;;;10.93;6.60;;;;;;;7.22;100.00;101187.47;5274678;28;20186;-65
2022/10/10 07:00:14;;;;;;;10.93;7.40;;;;;;;7.15;100.00;101188.78;5272970;28;20400;-65
2022/10/10 07:02:46;;;;;;;11.85;6.63;;;;;;;7.27;100.00;101192.53;5255949;28;20036;-65
2022/10/10 07:05:17;;;;;;;14.70;7.47;;;;;;;7.23;100.00;101191.00;5254455;28;20075;-65
2022/10/10 07:07:51;;;;;;;14.88;6.82;;;;;;;7.35;100.00;101197.41;5257426;28;20037;-65
2022/10/10 07:10:22;;;;;;;13.27;7.22;;;;;;;7.40;100.00;101195.31;5253789;28;20036;-65
2022/10/10 07:12:53;;;;;;;14.52;7.20;;;;;;;7.47;100.00;101194.88;5253248;28;20048;-66
2022/10/10 07:15:24;;;;;;;13.68;7.90;;;;;;;7.52;100.00;101196.44;5253092;28;20697;-66
2022/10/10 07:17:57;;;;;;;12.73;7.63;;;;;;;7.53;100.00;101200.78;5256499;28;20158;-66
2022/10/10 07:20:29;;;;;;;15.55;8.73;;;;;;;7.62;100.00;101203.75;5254431;28;20043;-65
2022/10/10 07:23:01;;;;;;;17.33;8.02;;;;;;;7.72;100.00;101206.72;5254618;28;20477;-65
2022/10/10 07:25:32;;;;;;;16.00;7.95;;;;;;;7.71;100.00;101206.81;5257091;28;20386;-65
2022/10/10 07:28:04;;;;;;;16.25;7.80;;;;;;;7.83;100.00;101203.44;5251381;28;20028;-66
2022/10/10 07:30:43;;;;;;;17.15;8.35;;;;;;;7.97;100.00;101205.28;5252347;28;20516;-66
2022/10/10 07:33:14;;;;;;;15.48;8.45;;;;;;;8.02;100.00;101204.06;5253573;28;20090;-65
2022/10/10 07:35:52;;;;;;;17.13;8.88;;;;;;;8.13;100.00;101210.50;5258319;28;20025;-65
2022/10/10 07:38:24;;;;;;;16.25;8.50;;;;;;;8.24;100.00;101214.22;5255811;28;20028;-65
2022/10/10 07:40:55;;;;;;;15.10;8.05;;;;;;;8.32;100.00;101215.56;5255789;28;20475;-65
2022/10/10 07:43:27;;;;;;;14.45;8.45;;;;;;;8.33;100.00;101211.97;5255838;28;20482;-65
2022/10/10 07:45:58;;;;;;;12.75;8.35;;;;;;;8.48;100.00;101218.19;5237195;28;20548;-65
2022/10/10 07:48:30;;;;;;;13.40;8.02;;;;;;;8.60;100.00;101220.06;5250519;28;20115;-66
2022/10/10 07:51:05;;;;;;;14.23;8.35;;;;;;;8.67;100.00;101224.06;5253278;28;20115;-65
2022/10/10 07:53:37;;;;;;;12.43;8.20;;;;;;;8.79;100.00;101231.28;5257772;28;20076;-66
2022/10/10 07:56:09;;;;;;;14.82;8.88;;;;;;;8.95;100.00;101230.31;5251872;28;20104;-66
2022/10/10 07:58:40;;;;;;;14.82;7.63;;;;;;;8.95;100.00;101228.50;5252394;28;20124;-66
2022/10/10 08:01:12;;;;;;;14.48;8.20;;;;;;;9.00;100.00;101234.38;5256626;28;20054;-66
2022/10/10 08:03:44;;;;;;;14.85;8.57;;;;;;;9.12;100.00;101237.22;5251692;28;21253;-65
2022/10/10 08:06:16;;;;;;;14.98;7.90;;;;;;;9.27;100.00;101235.38;5262193;28;20361;-66
2022/10/10 08:08:49;;;;;;;14.63;7.90;;;;;;;9.51;100.00;101231.13;5267765;28;20407;-66
2022/10/10 08:11:21;;;;;;;13.48;7.85;;;;;;;9.45;100.00;101236.81;5260069;28;20148;-66
2022/10/10 08:13:52;;;;;;;15.45;8.13;;;;;;;9.51;100.00;101231.13;5264433;28;20382;-66
2022/10/10 08:16:24;;;;;;;13.50;7.88;;;;;;;9.60;100.00;101237.63;5254858;28;20405;-66
2022/10/10 08:18:55;;;;;;;13.40;7.70;;;;;;;9.65;100.00;101224.88;5266610;28;20039;-66
2022/10/10 08:21:26;;;;;;;11.82;7.72;;;;;;;9.77;100.00;101236.53;5259157;28;20482;-66
2022/10/10 08:23:58;;;;;;;14.48;7.25;;;;;;;9.83;100.00;101238.75;5251750;28;20067;-66
2022/10/10 08:26:29;;;;;;;12.63;8.10;;;;;;;9.90;100.00;101240.06;5254590;28;20032;-66
2022/10/10 08:29:00;;;;;;;14.20;7.35;;;;;;;9.95;100.00;101239.75;5263628;28;20093;-66
2022/10/10 08:31:32;;;;;;;12.07;7.38;;;;;;;9.99;100.00;101236.78;5267365;28;20553;-66
2022/10/10 08:34:03;;;;;;;12.77;6.90;;;;;;;10.13;100.00;101245.66;5256733;28;20473;-66
2022/10/10 08:36:34;;;;;;;10.98;6.70;;;;;;;10.12;100.00;101246.59;5249341;28;20605;-65
2022/10/10 08:39:06;;;;;;;13.20;6.82;;;;;;;10.27;100.00;101252.72;5259724;28;20130;-66
2022/10/10 08:41:59;;;;;;;15.00;7.38;;;;;;;10.35;100.00;101245.06;5259412;28;20039;-66
2022/10/10 08:44:33;;;;;;;17.27;6.88;;;;;;;10.51;100.00;101242.19;5259571;28;20047;-65
2022/10/10 08:47:21;;;;;;;13.80;7.13;;;;;;;10.52;100.00;101243.88;5255625;28;20033;-65
2022/10/10 08:50:15;;;;;;;9.95;6.38;;;;;;;10.66;100.00;101243.78;5259591;28;20115;-65
2022/10/10 08:52:56;;;;;;;12.18;6.68;;;;;;;10.90;100.00;101253.69;5257949;28;20045;-66
2022/10/10 08:55:32;;;;;;;14.30;6.78;;;;;;;11.01;100.00;101243.09;5262540;28;20075;-65
2022/10/10 08:58:20;;;;;;;16.30;6.55;;;;;;;11.24;100.00;101238.75;5262289;28;20024;-67
2022/10/10 09:01:02;;;;;;;10.55;6.97;;;;;;;11.31;100.00;101239.13;5259812;28;20025;-65
2022/10/10 09:03:40;;;;;;;12.07;6.07;;;;;;;11.47;100.00;101239.72;5265905;28;20105;-65
2022/10/10 09:06:14;;;;;;;11.10;6.18;;;;;;;11.66;100.00;101241.88;5258592;28;20020;-65
2022/10/10 09:09:19;;;;;;;9.68;5.78;;;;;;;11.80;100.00;101253.38;5266370;28;20032;-65
2022/10/10 09:11:58;;;;;;;9.02;5.53;;;;;;;11.88;100.00;101248.28;5265066;28;20494;-65
2022/10/10 09:14:46;;;;;;;10.93;5.72;;;;;;;12.01;100.00;101248.25;5264883;28;20075;-65
2022/10/10 09:17:17;;;;;;;10.95;5.38;;;;;;;12.10;100.00;101256.41;5262639;28;20074;-66
2022/10/10 09:20:09;;;;;;;10.90;5.18;;;;;;;12.18;100.00;101263.84;5259878;28;20032;-66
2022/10/10 09:23:22;;;;;;;11.90;5.00;;;;;;;12.31;100.00;101259.28;5255651;28;20112;-66
2022/10/10 09:25:58;;;;;;;14.18;5.45;;;;;;;12.42;100.00;101262.94;5249361;28;20043;-66
2022/10/10 09:28:46;;;;;;;12.65;5.40;;;;;;;12.54;100.00;101267.31;5269515;28;20091;-66
2022/10/10 09:31:40;;;;;;;11.38;5.32;;;;;;;12.68;100.00;101279.63;5265660;28;20466;-65
2022/10/10 09:34:18;;;;;;;7.60;4.50;;;;;;;12.87;100.00;101287.91;5263255;28;20037;-66
2022/10/10 09:36:49;;;;;;;8.90;5.20;;;;;;;12.97;100.00;101280.00;5262648;28;20781;-66
2022/10/10 09:39:32;;;;;;;9.63;4.60;;;;;;;12.98;100.00;101287.03;5261456;28;20029;-66
2022/10/10 09:42:09;;;;;;;13.73;5.50;;;;;;;13.14;100.00;101281.34;5266198;28;20042;-66
2022/10/10 09:44:41;;;;;;;10.35;5.30;;;;;;;13.25;100.00;101284.00;5262985;28;20024;-66
2022/10/10 09:47:15;;;;;;;15.65;5.25;;;;;;;13.39;100.00;101284.75;5255658;28;20082;-66
2022/10/10 09:49:47;;;;;;;11.00;5.10;;;;;;;13.50;100.00;101290.94;5256122;28;20036;-66
2022/10/10 09:52:30;;;;;;;9.30;4.80;;;;;;;13.69;100.00;101290.28;5258211;28;20060;-66
2022/10/10 09:55:05;;;;;;;10.88;4.70;;;;;;;13.76;100.00;101293.28;5261650;28;20432;-66
2022/10/10 09:57:39;;;;;;;9.60;4.50;;;;;;;13.73;100.00;101297.09;5267119;28;20040;-66
2022/10/10 10:00:22;;;;;;;8.70;5.20;;;;;;;13.78;100.00;101299.38;5267139;28;20039;-66
2022/10/10 10:03:12;;;;;;;10.73;4.70;;;;;;;13.83;100.00;101299.84;5267835;28;20135;-66
2022/10/10 10:06:00;;;;;;;7.85;4.45;;;;;;;13.97;100.00;101292.47;5259900;28;20016;-66
2022/10/10 10:08:34;;;;;;;9.77;4.28;;;;;;;13.99;100.00;101301.25;5262010;28;20115;-66
2022/10/10 10:11:19;;;;;;;8.88;4.53;;;;;;;13.99;100.00;101296.72;5258935;28;20028;-67
2022/10/10 10:13:54;;;;;;;11.98;4.78;;;;;;;14.01;100.00;101301.97;5264127;28;20032;-66
2022/10/10 10:16:37;;;;;;;12.70;5.40;;;;;;;14.07;100.00;101296.94;5259825;28;20032;-66
2022/10/10 10:19:33;;;;;;;11.40;5.10;;;;;;;14.10;100.00;101302.06;5263434;28;20071;-66
2022/10/10 10:22:21;;;;;;;8.07;4.30;;;;;;;14.15;100.00;101304.34;5259764;28;20525;-66
2022/10/10 10:24:53;;;;;;;11.18;4.80;;;;;;;14.08;100.00;101303.16;5261759;28;20037;-66
2022/10/10 10:27:26;;;;;;;10.93;4.80;;;;;;;14.07;100.00;101306.81;5260100;28;20536;-66
2022/10/10 10:29:57;;;;;;;13.35;5.90;;;;;;;14.11;100.00;101300.22;5258418;28;20109;-66
2022/10/10 10:32:47;;;;;;;8.25;5.18;;;;;;;14.17;100.00;101297.03;5261649;28;20037;-66
2022/10/10 10:35:36;;;;;;;8.43;5.15;;;;;;;14.14;100.00;101302.66;5263469;28;20492;-66
2022/10/10 10:38:33;;;;;;;14.15;5.68;;;;;;;14.25;100.00;101310.66;5256189;28;20040;-66
2022/10/10 10:41:24;;;;;;;11.73;5.38;;;;;;;14.29;100.00;101312.09;5254121;28;20347;-67
2022/10/10 10:44:29;;;;;;;9.57;5.07;;;;;;;14.43;100.00;101313.59;5253833;28;20021;-66
2022/10/10 10:47:15;;;;;;;12.50;5.05;;;;;;;14.44;100.00;101318.00;5257723;28;20422;-66
2022/10/10 10:49:54;;;;;;;8.10;4.63;;;;;;;14.51;100.00;101321.81;5262627;28;20111;-66
2022/10/10 10:52:35;;;;;;;9.43;5.22;;;;;;;14.45;100.00;101322.34;5262387;28;20032;-66
2022/10/10 10:55:17;;;;;;;8.30;4.53;;;;;;;14.48;100.00;101332.84;5266441;28;20044;-66
2022/10/10 10:58:14;;;;;;;8.80;4.60;;;;;;;14.55;100.00;101324.25;5270698;28;20040;-67
2022/10/10 11:00:59;;;;;;;10.00;4.25;;;;;;;14.65;100.00;101334.13;5219319;28;20063;-67
2022/10/10 11:03:59;;;;;;;9.77;4.40;;;;;;;14.70;100.00;101329.19;5270563;28;20752;-67
2022/10/10 11:06:59;;;;;;;10.93;5.05;;;;;;;14.71;100.00;101340.81;5256083;28;20041;-67
2022/10/10 11:09:35;;;;;;;8.55;4.30;;;;;;;14.72;100.00;101349.72;5270255;28;20082;-66
2022/10/10 11:12:24;;;;;;;10.48;4.45;;;;;;;14.77;100.00;101342.13;5262254;28;20501;-67
2022/10/10 11:15:01;;;;;;;10.63;4.75;;;;;;;14.73;100.00;101354.06;5258550;28;20031;-67
2022/10/10 11:17:41;;;;;;;8.85;4.63;;;;;;;14.68;100.00;101347.28;5269984;28;20028;-66
2022/10/10 11:20:40;;;;;;;11.93;4.90;;;;;;;14.68;100.00;101355.34;5266167;28;20028;-66
2022/10/10 11:23:19;;;;;;;11.85;4.78;;;;;;;14.67;100.00;101353.66;5261998;28;20159;-66
2022/10/10 11:25:56;;;;;;;11.18;4.85;;;;;;;14.69;100.00;101359.72;5262963;28;20375;-66
2022/10/10 11:28:30;;;;;;;8.75;4.60;;;;;;;14.74;100.00;101364.69;5267221;28;20116;-66
2022/10/10 11:31:07;;;;;;;9.25;4.45;;;;;;;15.01;100.00;101365.97;5264642;28;20029;-66
2022/10/10 11:33:45;;;;;;;12.05;5.28;;;;;;;14.82;100.00;101353.28;5259107;28;20024;-67
2022/10/10 11:36:24;;;;;;;9.55;4.90;;;;;;;14.89;100.00;101344.56;5260433;28;20055;-67
2022/10/10 11:39:09;;;;;;;8.45;4.07;;;;;;;14.89;100.00;101347.25;5269912;28;20056;-67
2022/10/10 11:41:46;;;;;;;10.80;4.72;;;;;;;14.93;100.00;101345.16;5261478;28;20043;-67
2022/10/10 11:44:57;;;;;;;10.70;5.20;;;;;;;15.06;100.00;101351.16;5264567;28;20032;-67
2022/10/10 11:47:38;;;;;;;10.63;4.63;;;;;;;15.10;100.00;101349.06;5258837;28;20465;-67
2022/10/10 11:50:27;;;;;;;12.32;4.47;;;;;;;15.16;100.00;101348.50;5270443;28;20031;-67
2022/10/10 11:53:14;;;;;;;9.88;4.35;;;;;;;15.16;100.00;101348.50;5264089;28;20041;-68
2022/10/10 11:55:57;;;;;;;9.32;4.50;;;;;;;15.31;100.00;101351.69;5262036;28;20299;-67
2022/10/10 11:58:35;;;;;;;8.38;4.32;;;;;;;15.20;100.00;101349.94;5258625;28;20039;-67
2022/10/10 12:01:18;;;;;;;6.65;4.07;;;;;;;15.32;100.00;101353.38;5267540;28;20127;-67